Incident at DEER LAKE NL (CYDF)

Summary

2010-04-19: EV7633, on approach to Runway 07, advised that it was executing a missed approach. The flight then requested an ILS approach to Runway 25. The flight was re-cleared for Runway 25 and landed without incident. Nil TSB METAR CYDF 162300Z 05015G22KT 3 -DZ BR OVC009 02/01 A2978 ST10= METAR CYDF 170000Z 06010G15KT 3 -DZ BR OVC006 02/01 A2980 ST10=

Details


CADORS Number 2010A0322
Occurrence Type Incident
Reported By NAV CANADA
Occurred At 2010-04-16 - 23:49
Day or Night?
Fatalities 0
Injuries 0
Aerodrome ID CYDF
Aerodrome Name DEER LAKE NL (CYDF)
Geographic Location Newfoundland and Labrador, Canada, North America, Atlantic Region, Deer Lake (CYDF)
TSB Occurrence Number
TSB Class of Investigation
AOR Number 118011-V1
Reported By NAV CANADA
Categories Undershoot/overshoot
Events



Aircraft Details (1 aircraft)

Type Aeroplane
 Silhouette image of Aeroplane
Canadian Registration
Foreign Registration
Country of Registration Canada
Occurrence Type Incident
Owner EXPLOITS VALLEY AIR SERVICES LTD.
Operator EXPLOITS VALLEY AIR SERVICES LTD (6676) Commercial
Make  Silhouette image of BEECH
BEECH
Model  Silhouette image of 1900D
1900D
Year Built
Engine Type Turbo prop
Engine Make
Engine Model
Gear Type Land
Private No
Amateur Built No
Flight Number EV7633
Flight Rule
CARS Subpart
Phase of Flight Approach
Damage No Damage
Fatalities 0
Injuries 0
Events Overshoot/missed approach

Leave a Comment